Scawby, United Kingdom
Current Conditions -  °F | °C
As of 1:20 AM on Thursday 23 Oct 2014 (Local Time) from EGNJ Reporting Station
Clear Clear  
Wind Chill: 10°   Ceiling: Unl
Heat Index: 10°   Visibility: 5mi
Dew Point:   Wind: 13mph
Humidity: 94%   Direction: 200°SSW
Pressure: 30.06"   Gusts: NA
Location:  53.54°N, 0.54°W
Report Text: EGNJ 230020Z AUTO 20011KT 8000 NCD 10/09 Q1018
Loading
Personal Weather Stations






























Interactive Weather Map
Tropical Storm Tracking
New forecast layout! Learn more

10-Day Weather Forecast

Advertisements
Track Severe Weather on mobile